ROMMA est une association bénévole à but non lucratif. Votre soutien est indispensable : ADHERER à ROMMA ou FAIRE un DON

Taninges - (74, Haute-Savoie)

Vallée du Giffre (635 m)   Longitude: 06° 35' 38" E   Latitude: 46° 06' 21" N Station romma n°98
 

Détail journalier du     <<     >>

Température Precipitation Humidité Pression Vent Dir Rafale Dir. rafale Ensol.
Heure (°C) (mm) (%) (hPa) (km/h) (km/h) (min)
01:00 -3.6094101702NE0
02:00 -3.8095101703NE0
03:00 -3.6095101703NNE0
04:00 -3.8096101702SE0
05:00 -4.5095101702SE0
06:00 -4.8095101702SE0
07:00 -5.7096101802SE0
08:00 -6.4095101902SE0
09:00 -6.5095101903ESE15
10:00 -5.1096101902ESE50
11:00 -1.6094101902ESE60
12:00 1.0083101802SE45
13:00 3.207310171SE3SE60
14:00 2.408010175OSO15OSO60
15:00 2.807910176OSO15OSO60
16:00 2.607910176OSO15SO60
17:00 1.808010172OSO10O50
18:00 -0.808610171E5SSE0
19:00 -1.909010181E3E0
20:00 -3.1092101803E0
21:00 -3.109310191E5SSO0
22:00 -2.4094101803SSO0
23:00 -2.009410181ONO5SO0
minuit -2.1093101702ONO0

Graphique du 21-01-2019

 

Serveur OMMA